Terminal Aerodrome Forecast
Issued by NWS

Home | Current Version | Previous Version | Graphics & Text | Print | Product List | Glossary On
Versions: 1 2 3 4 5 6 7 8 9 10 11 12 13 14 15 16
000
FTUS43 KGRB 201018 AAA
TAFMTW
TAF AMD
KMTW 201018Z 2010/2106 26006KT P6SM SCT012 BKN100
      TEMPO 2010/2012 BKN012
     FM201200 27007KT P6SM SCT030 BKN100
     FM201800 21007KT P6SM SCT030 BKN100
     FM210100 VRB03KT P6SM SKC=

USA.gov is the U.S. government's official web portal to all federal, state and local government web resources and services.